| time (UTC) | temp C | wind direction | speed KPH | gust KPH | rain 1hr cm | rain 24hr cm | rain mn cm | humidity % | barometer mb |
| 20260903010944 | 30 | 129 | 0.0 | 1.6 | 0.00 | 0.00 | 0.00 | 63 | 1017.3 |
| 20260903010439 | 30 | 127 | 0.0 | 1.6 | 0.00 | 0.00 | 0.00 | 62 | 1017.4 |
| 20260903005937 | 30 | 123 | 0.0 | 0.0 | 0.00 | 0.00 | 0.00 | 62 | 1017.3 |
| 20260903005427 | 30 | 123 | 0.0 | 0.0 | 0.00 | 0.00 | 0.00 | 62 | 1017.1 |
| 20260903004923 | 30 | 131 | 0.0 | 1.6 | 0.00 | 0.00 | 0.00 | 61 | 1017.2 |
| 20260903004418 | 30 | 132 | 0.0 | 1.6 | 0.00 | 0.00 | 0.00 | 61 | 1017.2 |
| 20260903003913 | 30 | 114 | 0.0 | 1.6 | 0.00 | 0.00 | 0.00 | 61 | 1017.0 |
| 20260903003413 | 30 | 125 | 0.0 | 1.6 | 0.00 | 0.00 | 0.00 | 60 | 1017.2 |
| 20260903002908 | 30 | 129 | 0.0 | 1.6 | 0.00 | 0.00 | 0.00 | 60 | 1017.0 |
| 20260903002403 | 30 | 123 | 0.0 | 0.0 | 0.00 | 0.00 | 0.00 | 60 | 1017.0 |
| 20260903001902 | 30 | 128 | 0.0 | 1.6 | 0.00 | 0.00 | 0.00 | 60 | 1017.1 |
| 20260903001357 | 31 | 119 | 0.0 | 1.6 | 0.00 | 0.00 | 0.00 | 59 | 1017.1 |
| 20260903000857 | 31 | 121 | 0.0 | 1.6 | 0.00 | 0.00 | 0.00 | 59 | 1017.1 |
| 20260903000355 | 31 | 118 | 0.0 | 1.6 | 0.00 | 0.00 | 0.00 | 59 | 1017.0 |
| 20260902235850 | 31 | 109 | 0.0 | 1.6 | 0.00 | 0.00 | 0.00 | 58 | 1017.2 |
| 20260902235346 | 31 | 120 | 0.0 | 0.0 | 0.00 | 0.00 | 0.00 | 58 | 1017.1 |
| 20260902234845 | 31 | 126 | 0.0 | 1.6 | 0.00 | 0.00 | 0.00 | 56 | 1017.0 |
| 20260902234345 | 32 | 111 | 0.0 | 0.0 | 0.00 | 0.00 | 0.00 | 56 | 1017.1 |
| 20260902233844 | 32 | 148 | 1.6 | 1.6 | 0.00 | 0.00 | 0.00 | 55 | 1017.1 |
| 20260902233339 | 32 | 90 | 1.6 | 3.2 | 0.00 | 0.00 | 0.00 | 54 | 1017.1 |
| 20260902232837 | 32 | 113 | 1.6 | 4.8 | 0.00 | 0.00 | 0.00 | 54 | 1017.2 |
| 20260902232332 | 32 | 123 | 0.0 | 3.2 | 0.00 | 0.00 | 0.00 | 54 | 1017.2 |
| 20260902231826 | 32 | 117 | 0.0 | 3.2 | 0.00 | 0.00 | 0.00 | 54 | 1017.1 |
| 20260902231321 | 33 | 136 | 1.6 | 3.2 | 0.00 | 0.00 | 0.00 | 53 | 1017.1 |
| 20260902230816 | 33 | 110 | 0.0 | 4.8 | 0.00 | 0.00 | 0.00 | 53 | 1017.4 |
| 20260902230315 | 33 | 96 | 3.2 | 6.4 | 0.00 | 0.00 | 0.00 | 52 | 1017.2 |
| 20260902225810 | 33 | 121 | 0.0 | 3.2 | 0.00 | 0.00 | 0.00 | 52 | 1017.4 |
| 20260902225306 | 33 | 126 | 1.6 | 3.2 | 0.00 | 0.00 | 0.00 | 51 | 1017.3 |
| 20260902224804 | 33 | 121 | 0.0 | 4.8 | 0.00 | 0.00 | 0.00 | 51 | 1017.2 |
| 20260902224259 | 33 | 215 | 1.6 | 3.2 | 0.00 | 0.00 | 0.00 | 51 | 1017.4 |
| 20260902223756 | 34 | 106 | 0.0 | 3.2 | 0.00 | 0.00 | 0.00 | 51 | 1017.2 |
| 20260902223255 | 34 | 129 | 0.0 | 3.2 | 0.00 | 0.00 | 0.00 | 50 | 1017.2 |
| 20260902222754 | 33 | 116 | 0.0 | 1.6 | 0.00 | 0.00 | 0.00 | 51 | 1017.3 |
| 20260902222248 | 33 | 115 | 0.0 | 1.6 | 0.00 | 0.00 | 0.00 | 50 | 1017.4 |
| 20260902221742 | 34 | 128 | 1.6 | 6.4 | 0.00 | 0.00 | 0.00 | 49 | 1017.4 |
| 20260902221242 | 35 | 122 | 0.0 | 1.6 | 0.00 | 0.00 | 0.00 | 47 | 1017.3 |
| 20260902220738 | 35 | 197 | 1.6 | 6.4 | 0.00 | 0.00 | 0.00 | 47 | 1017.2 |
| 20260902220237 | 35 | 114 | 0.0 | 4.8 | 0.00 | 0.00 | 0.00 | 47 | 1017.4 |
| 20260902215733 | 35 | 115 | 1.6 | 1.6 | 0.00 | 0.00 | 0.00 | 48 | 1017.2 |
| 20260902215229 | 35 | 72 | 1.6 | 3.2 | 0.00 | 0.00 | 0.00 | 47 | 1017.3 |
| 20260902214724 | 35 | 99 | 0.0 | 3.2 | 0.00 | 0.00 | 0.00 | 48 | 1017.4 |
| 20260902214222 | 35 | 136 | 3.2 | 9.7 | 0.00 | 0.00 | 0.00 | 46 | 1017.4 |
| 20260902213718 | 36 | 287 | 1.6 | 4.8 | 0.00 | 0.00 | 0.00 | 46 | 1017.4 |
| 20260902213213 | 36 | 133 | 0.0 | 3.2 | 0.00 | 0.00 | 0.00 | 47 | 1017.5 |
| 20260902212713 | 35 | 117 | 1.6 | 3.2 | 0.00 | 0.00 | 0.00 | 46 | 1017.4 |
| 20260902212209 | 36 | 139 | 3.2 | 12.9 | 0.00 | 0.00 | 0.00 | 45 | 1017.4 |
| 20260902211705 | 35 | 115 | 1.6 | 6.4 | 0.00 | 0.00 | 0.00 | 47 | 1017.4 |
| 20260902211200 | 35 | 117 | 0.0 | 1.6 | 0.00 | 0.00 | 0.00 | 48 | 1017.4 |
| 20260902210659 | 35 | 120 | 3.2 | 6.4 | 0.00 | 0.00 | 0.00 | 47 | 1017.7 |
| 20260902210155 | 35 | 111 | 1.6 | 3.2 | 0.00 | 0.00 | 0.00 | 46 | 1017.7 |
| 20260902205653 | 35 | 117 | 1.6 | 3.2 | 0.00 | 0.00 | 0.00 | 47 | 1017.7 |
| 20260902205148 | 35 | 100 | 1.6 | 4.8 | 0.00 | 0.00 | 0.00 | 46 | 1017.8 |
| 20260902204643 | 35 | 167 | 3.2 | 3.2 | 0.00 | 0.00 | 0.00 | 46 | 1017.5 |
| 20260902204138 | 36 | 240 | 3.2 | 4.8 | 0.00 | 0.00 | 0.00 | 46 | 1017.4 |
| 20260902203634 | 36 | 196 | 3.2 | 6.4 | 0.00 | 0.00 | 0.00 | 44 | 1017.8 |
| 20260902203133 | 36 | 125 | 1.6 | 4.8 | 0.00 | 0.00 | 0.00 | 44 | 1017.8 |
| 20260902202629 | 35 | 112 | 4.8 | 6.4 | 0.00 | 0.00 | 0.00 | 44 | 1017.8 |
| 20260902202125 | 35 | 120 | 1.6 | 4.8 | 0.00 | 0.00 | 0.00 | 45 | 1017.9 |
| 20260902201621 | 36 | 106 | 4.8 | 4.8 | 0.00 | 0.00 | 0.00 | 43 | 1017.8 |
| 20260902201115 | 36 | 127 | 3.2 | 11.3 | 0.00 | 0.00 | 0.00 | 43 | 1017.7 |
| 20260902200610 | 36 | 102 | 6.4 | 14.5 | 0.00 | 0.00 | 0.00 | 42 | 1017.9 |
| 20260902200106 | 36 | 120 | 1.6 | 3.2 | 0.00 | 0.00 | 0.00 | 44 | 1017.9 |
| 20260902195602 | 35 | 111 | 1.6 | 4.8 | 0.00 | 0.00 | 0.00 | 45 | 1018.1 |
| 20260902195100 | 36 | 119 | 1.6 | 3.2 | 0.00 | 0.00 | 0.00 | 44 | 1018.1 |
| 20260902194554 | 36 | 89 | 3.2 | 6.4 | 0.00 | 0.00 | 0.00 | 44 | 1018.2 |
| 20260902194050 | 35 | 105 | 4.8 | 9.7 | 0.00 | 0.00 | 0.00 | 46 | 1018.2 |
| 20260902193546 | 34 | 123 | 0.0 | 1.6 | 0.00 | 0.00 | 0.00 | 47 | 1018.2 |
| 20260902193045 | 34 | 104 | 4.8 | 4.8 | 0.00 | 0.00 | 0.00 | 46 | 1018.3 |
| 20260902192544 | 35 | 118 | 1.6 | 3.2 | 0.00 | 0.00 | 0.00 | 46 | 1018.4 |
| 20260902192043 | 35 | 121 | 0.0 | 6.4 | 0.00 | 0.00 | 0.00 | 47 | 1018.4 |
| 20260902191538 | 36 | 88 | 4.8 | 6.4 | 0.00 | 0.00 | 0.00 | 43 | 1018.4 |
| 20260902191032 | 36 | 111 | 3.2 | 6.4 | 0.00 | 0.00 | 0.00 | 42 | 1018.5 |
| 20260902190528 | 36 | 128 | 1.6 | 4.8 | 0.00 | 0.00 | 0.00 | 44 | 1018.6 |
| 20260902190024 | 36 | 78 | 3.2 | 9.7 | 0.00 | 0.00 | 0.00 | 42 | 1018.6 |
| 20260902185520 | 35 | 118 | 0.0 | 6.4 | 0.00 | 0.00 | 0.00 | 45 | 1018.5 |
| 20260902185015 | 35 | 114 | 4.8 | 9.7 | 0.00 | 0.00 | 0.00 | 46 | 1018.6 |
| 20260902184510 | 36 | 100 | 1.6 | 4.8 | 0.00 | 0.00 | 0.00 | 44 | 1018.7 |
| 20260902184005 | 36 | 113 | 0.0 | 4.8 | 0.00 | 0.00 | 0.00 | 46 | 1018.5 |
| 20260902183502 | 36 | 213 | 4.8 | 6.4 | 0.00 | 0.00 | 0.00 | 45 | 1018.8 |
| 20260902182957 | 36 | 257 | 8.0 | 11.3 | 0.00 | 0.00 | 0.00 | 44 | 1018.7 |
| 20260902182454 | 36 | 213 | 1.6 | 4.8 | 0.00 | 0.00 | 0.00 | 46 | 1019.0 |
| 20260902181949 | 35 | 114 | 3.2 | 4.8 | 0.00 | 0.00 | 0.00 | 47 | 1018.8 |
| 20260902181444 | 35 | 152 | 1.6 | 4.8 | 0.00 | 0.00 | 0.00 | 50 | 1018.9 |
| 20260902180944 | 33 | 108 | 1.6 | 4.8 | 0.00 | 0.00 | 0.00 | 51 | 1019.0 |
| 20260902180440 | 33 | 114 | 0.0 | 4.8 | 0.00 | 0.00 | 0.00 | 55 | 1019.2 |
| 20260902175936 | 33 | 119 | 3.2 | 9.7 | 0.00 | 0.00 | 0.00 | 52 | 1019.1 |
| 20260902175436 | 34 | 94 | 6.4 | 11.3 | 0.00 | 0.00 | 0.00 | 50 | 1019.0 |
| 20260902174931 | 33 | 129 | 1.6 | 9.7 | 0.00 | 0.00 | 0.00 | 52 | 1018.9 |
| 20260902174428 | 33 | 86 | 3.2 | 6.4 | 0.00 | 0.00 | 0.00 | 51 | 1019.1 |
| 20260902173924 | 34 | 112 | 3.2 | 4.8 | 0.00 | 0.00 | 0.00 | 50 | 1019.2 |
| 20260902173422 | 35 | 107 | 0.0 | 3.2 | 0.00 | 0.00 | 0.00 | 48 | 1019.3 |
| 20260902172918 | 35 | 124 | 0.0 | 9.7 | 0.00 | 0.00 | 0.00 | 49 | 1019.3 |
| 20260902172412 | 35 | 103 | 3.2 | 6.4 | 0.00 | 0.00 | 0.00 | 49 | 1019.3 |
| 20260902171907 | 34 | 131 | 1.6 | 9.7 | 0.00 | 0.00 | 0.00 | 51 | 1019.3 |
| 20260902171403 | 34 | 97 | 3.2 | 4.8 | 0.00 | 0.00 | 0.00 | 50 | 1019.4 |
| 20260902170859 | 33 | 202 | 3.2 | 4.8 | 0.00 | 0.00 | 0.00 | 49 | 1019.5 |
| 20260902170358 | 34 | 90 | 3.2 | 11.3 | 0.00 | 0.00 | 0.00 | 50 | 1019.4 |
| 20260902165854 | 34 | 93 | 4.8 | 6.4 | 0.00 | 0.00 | 0.00 | 49 | 1019.5 |
| 20260902165353 | 34 | 93 | 6.4 | 12.9 | 0.00 | 0.00 | 0.00 | 47 | 1019.5 |
| 20260902164848 | 34 | 108 | 3.2 | 4.8 | 0.00 | 0.00 | 0.00 | 48 | 1019.5 |
| 20260902164343 | 33 | 156 | 3.2 | 6.4 | 0.00 | 0.00 | 0.00 | 50 | 1019.5 |
| 20260902163843 | 33 | 124 | 1.6 | 9.7 | 0.00 | 0.00 | 0.00 | 49 | 1019.7 |
| 20260902163343 | 33 | 175 | 0.0 | 6.4 | 0.00 | 0.00 | 0.00 | 52 | 1019.6 |
| 20260902162841 | 33 | 95 | 3.2 | 4.8 | 0.00 | 0.00 | 0.00 | 54 | 1019.7 |
| 20260902162336 | 33 | 91 | 1.6 | 3.2 | 0.00 | 0.00 | 0.00 | 53 | 1019.8 |
| 20260902161831 | 33 | 209 | 4.8 | 9.7 | 0.00 | 0.00 | 0.00 | 52 | 1019.8 |
| 20260902161327 | 33 | 122 | 1.6 | 6.4 | 0.00 | 0.00 | 0.00 | 54 | 1019.7 |
| 20260902160823 | 32 | 112 | 3.2 | 4.8 | 0.00 | 0.00 | 0.00 | 54 | 1019.8 |
| 20260902160318 | 32 | 75 | 0.0 | 6.4 | 0.00 | 0.00 | 0.00 | 56 | 1020.0 |
| 20260902155816 | 32 | 102 | 3.2 | 4.8 | 0.00 | 0.00 | 0.00 | 54 | 1019.8 |
| 20260902155315 | 32 | 156 | 3.2 | 9.7 | 0.00 | 0.00 | 0.00 | 54 | 1019.9 |
| 20260902154810 | 32 | 115 | 8.0 | 11.3 | 0.00 | 0.00 | 0.00 | 54 | 1020.0 |
| 20260902154306 | 32 | 118 | 0.0 | 1.6 | 0.00 | 0.00 | 0.00 | 57 | 1020.0 |
| 20260902153804 | 32 | 244 | 9.7 | 14.5 | 0.00 | 0.00 | 0.00 | 56 | 1020.1 |
| 20260902153259 | 32 | 110 | 4.8 | 4.8 | 0.00 | 0.00 | 0.00 | 58 | 1020.1 |
| 20260902152755 | 32 | 172 | 1.6 | 4.8 | 0.00 | 0.00 | 0.00 | 59 | 1020.1 |
| 20260902152251 | 31 | 125 | 0.0 | 4.8 | 0.00 | 0.00 | 0.00 | 58 | 1020.1 |
| 20260902151751 | 31 | 126 | 0.0 | 4.8 | 0.00 | 0.00 | 0.00 | 60 | 1020.0 |
| 20260902151246 | 31 | 125 | 1.6 | 3.2 | 0.00 | 0.00 | 0.00 | 61 | 1020.1 |
| 20260902150745 | 31 | 125 | 3.2 | 4.8 | 0.00 | 0.00 | 0.00 | 60 | 1020.0 |
| 20260902150243 | 31 | 87 | 3.2 | 3.2 | 0.00 | 0.00 | 0.00 | 62 | 1020.2 |
| 20260902145741 | 30 | 137 | 3.2 | 4.8 | 0.00 | 0.00 | 0.00 | 64 | 1020.1 |
| 20260902145237 | 30 | 135 | 1.6 | 1.6 | 0.00 | 0.00 | 0.00 | 63 | 1020.0 |
| 20260902144732 | 30 | 147 | 1.6 | 4.8 | 0.00 | 0.00 | 0.00 | 64 | 1020.0 |
| 20260902144228 | 30 | 123 | 1.6 | 3.2 | 0.00 | 0.00 | 0.00 | 65 | 1020.1 |
| 20260902143723 | 30 | 118 | 0.0 | 3.2 | 0.00 | 0.00 | 0.00 | 65 | 1020.2 |
| 20260902143218 | 30 | 123 | 3.2 | 4.8 | 0.00 | 0.00 | 0.00 | 66 | 1020.2 |
| 20260902142714 | 30 | 131 | 1.6 | 1.6 | 0.00 | 0.00 | 0.00 | 66 | 1020.1 |
| 20260902142209 | 29 | 104 | 3.2 | 3.2 | 0.00 | 0.00 | 0.00 | 67 | 1020.1 |
| 20260902141709 | 29 | 117 | 0.0 | 1.6 | 0.00 | 0.00 | 0.00 | 67 | 1020.1 |
| 20260902141205 | 28 | 69 | 1.6 | 1.6 | 0.00 | 0.00 | 0.00 | 67 | 1020.2 |
| 20260902140701 | 28 | 111 | 0.0 | 4.8 | 0.00 | 0.00 | 0.00 | 68 | 1020.0 |
| 20260902140200 | 28 | 113 | 1.6 | 3.2 | 0.00 | 0.00 | 0.00 | 69 | 1020.2 |
| 20260902135659 | 28 | 109 | 0.0 | 4.8 | 0.00 | 0.00 | 0.00 | 70 | 1019.9 |
| 20260902135155 | 28 | 125 | 1.6 | 3.2 | 0.00 | 0.00 | 0.00 | 71 | 1020.1 |
| 20260902134650 | 27 | 129 | 0.0 | 3.2 | 0.00 | 0.00 | 0.00 | 72 | 1020.2 |
| 20260902134150 | 27 | 125 | 0.0 | 1.6 | 0.00 | 0.00 | 0.00 | 73 | 1020.0 |
| 20260902133645 | 27 | 116 | 0.0 | 1.6 | 0.00 | 0.00 | 0.00 | 73 | 1020.1 |
| 20260902133140 | 27 | 108 | 0.0 | 4.8 | 0.00 | 0.00 | 0.00 | 73 | 1020.3 |
| 20260902132635 | 27 | 122 | 1.6 | 1.6 | 0.00 | 0.00 | 0.00 | 73 | 1020.1 |
| 20260902132131 | 27 | 131 | 0.0 | 3.2 | 0.00 | 0.00 | 0.00 | 74 | 1020.2 |
| 20260902131626 | 26 | 122 | 1.6 | 4.8 | 0.00 | 0.00 | 0.00 | 74 | 1020.0 |
| 20260902131121 | 26 | 120 | 0.0 | 0.0 | 0.00 | 0.00 | 0.00 | 75 | 1020.1 |
| 20260902130617 | 26 | 112 | 0.0 | 0.0 | 0.00 | 0.00 | 0.00 | 76 | 1020.0 |
| 20260902130117 | 26 | 116 | 0.0 | 1.6 | 0.00 | 0.00 | 0.00 | 76 | 1020.1 |
| 20260902125613 | 26 | 129 | 0.0 | 1.6 | 0.00 | 0.00 | 0.00 | 76 | 1019.9 |
| 20260902125108 | 26 | 123 | 0.0 | 1.6 | 0.00 | 0.00 | 0.00 | 77 | 1019.9 |
| 20260902124606 | 26 | 121 | 0.0 | 1.6 | 0.00 | 0.00 | 0.00 | 77 | 1020.0 |
| 20260902124105 | 26 | 133 | 0.0 | 0.0 | 0.00 | 0.00 | 0.00 | 77 | 1020.0 |
| 20260902123600 | 26 | 124 | 0.0 | 1.6 | 0.00 | 0.00 | 0.00 | 77 | 1019.8 |
| 20260902123056 | 25 | 120 | 0.0 | 1.6 | 0.00 | 0.00 | 0.00 | 77 | 1019.8 |
| 20260902122555 | 25 | 114 | 0.0 | 0.0 | 0.00 | 0.00 | 0.00 | 78 | 1019.7 |
| 20260902122051 | 25 | 126 | 0.0 | 0.0 | 0.00 | 0.00 | 0.00 | 78 | 1019.8 |
| 20260902121551 | 25 | 115 | 0.0 | 1.6 | 0.00 | 0.00 | 0.00 | 78 | 1019.6 |
| 20260902121046 | 25 | 174 | 1.6 | 3.2 | 0.00 | 0.00 | 0.00 | 79 | 1019.7 |
| 20260902120542 | 25 | 178 | 1.6 | 3.2 | 0.00 | 0.00 | 0.00 | 79 | 1019.8 |
| 20260902120038 | 25 | 133 | 0.0 | 1.6 | 0.00 | 0.00 | 0.00 | 80 | 1019.7 |
| 20260902115538 | 25 | 125 | 0.0 | 1.6 | 0.00 | 0.00 | 0.00 | 80 | 1019.6 |
| 20260902115035 | 24 | 117 | 0.0 | 1.6 | 0.00 | 0.00 | 0.00 | 81 | 1019.6 |
| 20260902114531 | 24 | 110 | 0.0 | 1.6 | 0.00 | 0.00 | 0.00 | 81 | 1019.6 |
| 20260902114030 | 24 | 117 | 0.0 | 0.0 | 0.00 | 0.00 | 0.00 | 81 | 1019.5 |
| 20260902113526 | 24 | 115 | 0.0 | 1.6 | 0.00 | 0.00 | 0.00 | 81 | 1019.2 |
| 20260902113021 | 24 | 115 | 0.0 | 0.0 | 0.00 | 0.00 | 0.00 | 81 | 1019.6 |
| 20260902112516 | 24 | 123 | 0.0 | 1.6 | 0.00 | 0.00 | 0.00 | 81 | 1019.3 |
| 20260902112013 | 23 | 117 | 0.0 | 3.2 | 0.00 | 0.00 | 0.00 | 82 | 1019.1 |
| 20260902111510 | 23 | 118 | 0.0 | 0.0 | 0.00 | 0.00 | 0.00 | 83 | 1019.2 |
| 20260902111005 | 23 | 118 | 0.0 | 1.6 | 0.00 | 0.00 | 0.00 | 83 | 1019.1 |
| 20260902110501 | 23 | 113 | 0.0 | 0.0 | 0.00 | 0.00 | 0.00 | 83 | 1019.1 |
| 20260902110001 | 23 | 123 | 0.0 | 0.0 | 0.00 | 0.00 | 0.00 | 83 | 1019.3 |
| 20260902105451 | 23 | 117 | 0.0 | 0.0 | 0.00 | 0.00 | 0.00 | 83 | 1019.2 |
| 20260902104950 | 23 | 127 | 0.0 | 0.0 | 0.00 | 0.00 | 0.00 | 83 | 1019.2 |
| 20260902104446 | 23 | 116 | 0.0 | 0.0 | 0.00 | 0.00 | 0.00 | 83 | 1019.4 |
| 20260902103947 | 23 | 122 | 0.0 | 0.0 | 0.00 | 0.00 | 0.00 | 84 | 1019.1 |
| 20260902103442 | 23 | 122 | 0.0 | 1.6 | 0.00 | 0.00 | 0.00 | 85 | 1019.1 |
| 20260902102937 | 23 | 122 | 0.0 | 3.2 | 0.00 | 0.00 | 0.00 | 86 | 1019.1 |
| 20260902102434 | 23 | 127 | 0.0 | 0.0 | 0.00 | 0.00 | 0.00 | 86 | 1019.2 |
| 20260902101930 | 23 | 126 | 0.0 | 0.0 | 0.00 | 0.00 | 0.00 | 86 | 1019.1 |
| 20260902101430 | 23 | 126 | 0.0 | 0.0 | 0.00 | 0.00 | 0.00 | 85 | 1019.2 |
| 20260902100930 | 23 | 125 | 0.0 | 0.0 | 0.00 | 0.00 | 0.00 | 85 | 1019.0 |
| 20260902100429 | 23 | 125 | 0.0 | 1.6 | 0.00 | 0.00 | 0.00 | 85 | 1019.0 |
| 20260902095924 | 23 | 120 | 0.0 | 0.0 | 0.00 | 0.00 | 0.00 | 85 | 1019.1 |
| 20260902095419 | 23 | 130 | 0.0 | 0.0 | 0.00 | 0.00 | 0.00 | 85 | 1019.1 |
| 20260902094918 | 23 | 130 | 0.0 | 0.0 | 0.00 | 0.00 | 0.00 | 86 | 1019.0 |
| 20260902094414 | 23 | 129 | 0.0 | 0.0 | 0.00 | 0.00 | 0.00 | 86 | 1019.1 |
| 20260902093914 | 23 | 129 | 0.0 | 0.0 | 0.00 | 0.00 | 0.00 | 86 | 1019.2 |
| 20260902093409 | 23 | 129 | 0.0 | 0.0 | 0.00 | 0.00 | 0.00 | 85 | 1019.3 |
| 20260902092908 | 23 | 129 | 0.0 | 0.0 | 0.00 | 0.00 | 0.00 | 85 | 1019.1 |
| 20260902092404 | 23 | 129 | 0.0 | 0.0 | 0.00 | 0.00 | 0.00 | 85 | 1018.9 |
| 20260902091904 | 23 | 129 | 0.0 | 0.0 | 0.00 | 0.00 | 0.00 | 85 | 1019.1 |
| 20260902091359 | 23 | 129 | 0.0 | 0.0 | 0.00 | 0.00 | 0.00 | 85 | 1018.9 |
| 20260902090856 | 23 | 129 | 0.0 | 0.0 | 0.00 | 0.00 | 0.00 | 85 | 1019.0 |
| 20260902090356 | 23 | 129 | 0.0 | 0.0 | 0.00 | 0.00 | 0.00 | 85 | 1018.8 |
| 20260902085855 | 23 | 129 | 0.0 | 0.0 | 0.00 | 0.00 | 0.00 | 84 | 1018.8 |
| 20260902085350 | 23 | 129 | 0.0 | 0.0 | 0.00 | 0.00 | 0.00 | 85 | 1018.9 |
| 20260902084846 | 23 | 129 | 0.0 | 0.0 | 0.00 | 0.00 | 0.00 | 84 | 1018.8 |
| 20260902084342 | 23 | 129 | 0.0 | 0.0 | 0.00 | 0.00 | 0.00 | 84 | 1018.5 |
| 20260902083837 | 24 | 129 | 0.0 | 0.0 | 0.00 | 0.00 | 0.00 | 84 | 1018.7 |
| 20260902083337 | 24 | 129 | 0.0 | 0.0 | 0.00 | 0.00 | 0.00 | 83 | 1018.5 |
| 20260902082832 | 24 | 129 | 0.0 | 0.0 | 0.00 | 0.00 | 0.00 | 83 | 1018.6 |
| 20260902082328 | 24 | 129 | 0.0 | 0.0 | 0.00 | 0.00 | 0.00 | 83 | 1018.6 |
| 20260902081825 | 24 | 129 | 0.0 | 0.0 | 0.00 | 0.00 | 0.00 | 82 | 1018.4 |
| 20260902081320 | 24 | 129 | 0.0 | 0.0 | 0.00 | 0.00 | 0.00 | 82 | 1018.4 |
| 20260902080815 | 24 | 128 | 0.0 | 0.0 | 0.00 | 0.00 | 0.00 | 82 | 1018.4 |
| 20260902080312 | 24 | 123 | 0.0 | 0.0 | 0.00 | 0.00 | 0.00 | 82 | 1018.3 |
| 20260902075811 | 24 | 122 | 0.0 | 1.6 | 0.00 | 0.00 | 0.00 | 82 | 1018.4 |
| 20260902075308 | 24 | 125 | 0.0 | 0.0 | 0.00 | 0.00 | 0.00 | 82 | 1018.3 |
| 20260902074808 | 24 | 125 | 0.0 | 0.0 | 0.00 | 0.00 | 0.00 | 82 | 1018.3 |
| 20260902074303 | 24 | 125 | 0.0 | 0.0 | 0.00 | 0.00 | 0.00 | 81 | 1018.3 |
| 20260902073758 | 25 | 124 | 0.0 | 0.0 | 0.00 | 0.00 | 0.00 | 81 | 1018.3 |
| 20260902073254 | 25 | 124 | 0.0 | 0.0 | 0.00 | 0.00 | 0.00 | 81 | 1018.5 |
| 20260902072750 | 25 | 121 | 0.0 | 0.0 | 0.00 | 0.00 | 0.00 | 81 | 1018.3 |
| 20260902072245 | 25 | 121 | 0.0 | 0.0 | 0.00 | 0.00 | 0.00 | 80 | 1018.2 |
| 20260902071742 | 25 | 122 | 0.0 | 0.0 | 0.00 | 0.00 | 0.00 | 80 | 1018.3 |
| 20260902071236 | 25 | 122 | 0.0 | 0.0 | 0.00 | 0.00 | 0.00 | 80 | 1018.3 |
| 20260902070733 | 25 | 117 | 0.0 | 0.0 | 0.00 | 0.00 | 0.00 | 80 | 1018.4 |
| 20260902070232 | 25 | 117 | 0.0 | 1.6 | 0.00 | 0.00 | 0.00 | 80 | 1018.4 |
| 20260902065731 | 25 | 117 | 0.0 | 0.0 | 0.00 | 0.00 | 0.00 | 79 | 1018.4 |
| 20260902065227 | 25 | 117 | 0.0 | 0.0 | 0.00 | 0.00 | 0.00 | 79 | 1018.3 |
| 20260902064722 | 25 | 117 | 0.0 | 0.0 | 0.00 | 0.00 | 0.00 | 78 | 1018.2 |
| 20260902064218 | 25 | 121 | 0.0 | 0.0 | 0.00 | 0.00 | 0.00 | 78 | 1018.1 |
| 20260902063714 | 25 | 121 | 0.0 | 0.0 | 0.00 | 0.00 | 0.00 | 78 | 1018.3 |
| 20260902063214 | 25 | 115 | 0.0 | 1.6 | 0.00 | 0.00 | 0.00 | 77 | 1018.2 |
| 20260902062713 | 25 | 134 | 0.0 | 1.6 | 0.00 | 0.00 | 0.00 | 76 | 1018.5 |
| 20260902062208 | 26 | 116 | 0.0 | 1.6 | 0.00 | 0.00 | 0.00 | 76 | 1018.4 |
| 20260902061707 | 26 | 122 | 0.0 | 0.0 | 0.00 | 0.00 | 0.00 | 75 | 1018.3 |
| 20260902061203 | 26 | 115 | 0.0 | 1.6 | 0.00 | 0.00 | 0.00 | 75 | 1018.3 |
| 20260902060659 | 26 | 117 | 0.0 | 0.0 | 0.00 | 0.00 | 0.00 | 75 | 1018.2 |
| 20260902060155 | 26 | 115 | 0.0 | 1.6 | 0.00 | 0.00 | 0.00 | 74 | 1018.4 |
| 20260902055651 | 26 | 115 | 0.0 | 1.6 | 0.00 | 0.00 | 0.00 | 74 | 1018.4 |
| 20260902055147 | 26 | 117 | 0.0 | 1.6 | 0.00 | 0.00 | 0.00 | 74 | 1018.4 |
| 20260902054641 | 26 | 116 | 0.0 | 1.6 | 0.00 | 0.00 | 0.00 | 73 | 1018.4 |
| 20260902054137 | 26 | 110 | 1.6 | 1.6 | 0.00 | 0.00 | 0.00 | 73 | 1018.3 |
| 20260902053633 | 26 | 120 | 0.0 | 3.2 | 0.00 | 0.00 | 0.00 | 72 | 1018.4 |
| 20260902053132 | 26 | 112 | 0.0 | 1.6 | 0.00 | 0.00 | 0.00 | 72 | 1018.3 |
| 20260902052626 | 26 | 113 | 0.0 | 1.6 | 0.00 | 0.00 | 0.00 | 72 | 1018.5 |
| 20260902052122 | 27 | 116 | 0.0 | 0.0 | 0.00 | 0.00 | 0.00 | 72 | 1018.5 |
| 20260902051621 | 27 | 120 | 0.0 | 0.0 | 0.00 | 0.00 | 0.00 | 72 | 1018.4 |
| 20260902051116 | 27 | 118 | 0.0 | 0.0 | 0.00 | 0.00 | 0.00 | 71 | 1018.6 |
| 20260902050615 | 27 | 133 | 1.6 | 1.6 | 0.00 | 0.00 | 0.00 | 71 | 1018.5 |
| 20260902050111 | 27 | 121 | 0.0 | 1.6 | 0.00 | 0.00 | 0.00 | 71 | 1018.4 |
| 20260902045606 | 27 | 106 | 1.6 | 1.6 | 0.00 | 0.00 | 0.00 | 70 | 1018.4 |
| 20260902045103 | 27 | 117 | 0.0 | 1.6 | 0.00 | 0.00 | 0.00 | 71 | 1018.5 |
| 20260902044602 | 27 | 144 | 1.6 | 1.6 | 0.00 | 0.00 | 0.00 | 71 | 1018.5 |
| 20260902044058 | 27 | 125 | 0.0 | 1.6 | 0.00 | 0.00 | 0.00 | 72 | 1018.5 |
| 20260902043553 | 27 | 127 | 0.0 | 1.6 | 0.00 | 0.00 | 0.00 | 72 | 1018.4 |
| 20260902043048 | 26 | 136 | 0.0 | 1.6 | 0.00 | 0.00 | 0.00 | 73 | 1018.6 |
| 20260902042548 | 26 | 129 | 0.0 | 1.6 | 0.00 | 0.00 | 0.00 | 74 | 1018.5 |
| 20260902042043 | 26 | 130 | 0.0 | 0.0 | 0.00 | 0.00 | 0.00 | 74 | 1018.5 |
| 20260902041543 | 26 | 130 | 0.0 | 0.0 | 0.00 | 0.00 | 0.00 | 74 | 1018.4 |
| 20260902041038 | 26 | 130 | 0.0 | 0.0 | 0.00 | 0.00 | 0.00 | 74 | 1018.5 |
| 20260902040537 | 26 | 130 | 0.0 | 0.0 | 0.00 | 0.00 | 0.00 | 73 | 1018.6 |
| 20260902040033 | 26 | 130 | 0.0 | 0.0 | 0.00 | 0.00 | 0.00 | 73 | 1018.6 |
| 20260902035531 | 26 | 130 | 0.0 | 0.0 | 0.00 | 0.00 | 0.00 | 73 | 1018.7 |
| 20260902035027 | 26 | 130 | 0.0 | 0.0 | 0.00 | 0.00 | 0.00 | 73 | 1018.5 |
| 20260902034526 | 27 | 130 | 0.0 | 0.0 | 0.00 | 0.00 | 0.00 | 73 | 1018.6 |
| 20260902034025 | 27 | 130 | 0.0 | 0.0 | 0.00 | 0.00 | 0.00 | 72 | 1018.4 |
| 20260902033525 | 27 | 130 | 0.0 | 0.0 | 0.00 | 0.00 | 0.00 | 72 | 1018.4 |
| 20260902033019 | 27 | 130 | 0.0 | 0.0 | 0.00 | 0.00 | 0.00 | 71 | 1018.4 |
| 20260902032513 | 27 | 125 | 0.0 | 1.6 | 0.00 | 0.00 | 0.00 | 71 | 1018.5 |
| 20260902032009 | 27 | 130 | 0.0 | 0.0 | 0.00 | 0.00 | 0.00 | 70 | 1018.5 |
| 20260902031509 | 27 | 131 | 0.0 | 0.0 | 0.00 | 0.00 | 0.00 | 70 | 1018.5 |
| 20260902031005 | 27 | 128 | 0.0 | 1.6 | 0.00 | 0.00 | 0.00 | 70 | 1018.5 |
| 20260902030505 | 27 | 135 | 0.0 | 1.6 | 0.00 | 0.00 | 0.00 | 70 | 1018.4 |
| 20260902030004 | 27 | 135 | 0.0 | 1.6 | 0.00 | 0.00 | 0.00 | 69 | 1018.4 |
| 20260902025459 | 28 | 135 | 1.6 | 1.6 | 0.00 | 0.00 | 0.00 | 69 | 1018.5 |
| 20260902024954 | 28 | 135 | 0.0 | 1.6 | 0.00 | 0.00 | 0.00 | 68 | 1018.4 |
| 20260902024450 | 28 | 135 | 0.0 | 1.6 | 0.00 | 0.00 | 0.00 | 68 | 1018.6 |
| 20260902023949 | 28 | 134 | 0.0 | 0.0 | 0.00 | 0.00 | 0.00 | 68 | 1018.4 |
| 20260902023446 | 28 | 135 | 0.0 | 1.6 | 0.00 | 0.00 | 0.00 | 68 | 1018.7 |
| 20260902022945 | 28 | 134 | 0.0 | 0.0 | 0.00 | 0.00 | 0.00 | 69 | 1018.6 |
| 20260902022440 | 27 | 134 | 0.0 | 1.6 | 0.00 | 0.00 | 0.00 | 69 | 1018.5 |
| 20260902021937 | 28 | 134 | 0.0 | 0.0 | 0.00 | 0.00 | 0.00 | 69 | 1018.5 |
| 20260902021436 | 28 | 134 | 0.0 | 0.0 | 0.00 | 0.00 | 0.00 | 69 | 1018.5 |
| 20260902020932 | 28 | 134 | 0.0 | 0.0 | 0.00 | 0.00 | 0.00 | 68 | 1018.5 |
| 20260902020428 | 28 | 134 | 0.0 | 0.0 | 0.00 | 0.00 | 0.00 | 68 | 1018.6 |
| 20260902015923 | 28 | 134 | 0.0 | 0.0 | 0.00 | 0.00 | 0.00 | 68 | 1018.5 |
| 20260902015419 | 28 | 134 | 0.0 | 0.0 | 0.00 | 0.00 | 0.00 | 67 | 1018.5 |
| 20260902014914 | 28 | 134 | 0.0 | 1.6 | 0.00 | 0.00 | 0.00 | 67 | 1018.4 |
| 20260902014411 | 28 | 133 | 0.0 | 0.0 | 0.00 | 0.00 | 0.00 | 68 | 1018.5 |
| 20260902013910 | 28 | 133 | 0.0 | 0.0 | 0.00 | 0.00 | 0.00 | 68 | 1018.5 |
| 20260902013406 | 28 | 133 | 0.0 | 0.0 | 0.00 | 0.00 | 0.00 | 67 | 1018.3 |
| 20260902012901 | 28 | 133 | 0.0 | 0.0 | 0.00 | 0.00 | 0.00 | 67 | 1018.3 |
| 20260902012357 | 29 | 133 | 0.0 | 1.6 | 0.00 | 0.00 | 0.00 | 66 | 1018.3 |
| 20260902011853 | 29 | 127 | 0.0 | 0.0 | 0.00 | 0.00 | 0.00 | 66 | 1018.3 |
| 20260902011353 | 29 | 127 | 0.0 | 0.0 | 0.00 | 0.00 | 0.00 | 66 | 1018.2 |